Time;durP1;ratioP1;P1;durP2;ratioP2;P2;SDS_P1;SDS_P2;PMS_P1;PMS_P2;Temp;Humidity;BMP_temperature;BMP_pressure;BME280_temperature;BME280_humidity;BME280_pressure;Samples;Min_cycle;Max_cycle;Signal;HPM_P1;HPM_P2
2022/11/22 00:00:55;;;;;;;72.50;49.88;;;2.20;99.90;;;;;;6217071;23;20039;-83
2022/11/22 00:03:20;;;;;;;24.00;18.73;;;2.50;99.90;;;;;;6217623;23;20023;-84
2022/11/22 00:05:46;;;;;;;49.33;44.72;;;2.20;99.90;;;;;;6216443;23;20008;-83
2022/11/22 00:08:12;;;;;;;69.15;53.08;;;2.20;99.90;;;;;;6217312;23;20100;-82
2022/11/22 00:10:37;;;;;;;37.10;25.27;;;2.20;99.90;;;;;;6216820;23;20024;-83
2022/11/22 00:13:03;;;;;;;56.15;35.70;;;2.20;99.90;;;;;;6190337;23;20336;-83
2022/11/22 00:15:29;;;;;;;78.32;51.72;;;2.10;99.90;;;;;;6217374;23;20021;-83
2022/11/22 00:17:55;;;;;;;40.53;32.00;;;2.30;99.90;;;;;;6216593;23;20013;-83
2022/11/22 00:20:21;;;;;;;44.03;28.90;;;2.10;99.90;;;;;;6217196;23;20434;-84
2022/11/22 00:22:47;;;;;;;66.30;48.13;;;2.10;99.90;;;;;;6217100;23;20055;-83
2022/11/22 00:25:13;;;;;;;88.53;62.72;;;2.10;99.90;;;;;;6190314;23;20055;-82
2022/11/22 00:27:39;;;;;;;99.82;89.75;;;2.10;99.90;;;;;;6217045;23;20077;-82
2022/11/22 00:30:06;;;;;;;77.53;54.72;;;2.10;99.90;;;;;;6216944;23;20023;-82
2022/11/22 00:32:32;;;;;;;86.13;57.92;;;2.10;99.90;;;;;;6216861;23;20032;-83
2022/11/22 00:34:58;;;;;;;92.07;65.55;;;2.10;99.90;;;;;;6216778;23;20019;-83
2022/11/22 00:37:24;;;;;;;64.80;48.28;;;2.00;99.90;;;;;;6216697;23;20099;-83
2022/11/22 00:39:49;;;;;;;78.18;68.88;;;2.80;99.90;;;;;;6216648;23;20017;-83
2022/11/22 00:42:15;;;;;;;46.22;41.95;;;2.00;99.90;;;;;;6216417;23;20021;-83
2022/11/22 00:44:40;;;;;;;30.52;26.50;;;2.10;99.90;;;;;;6216847;23;20120;-83
2022/11/22 00:47:06;;;;;;;29.25;19.75;;;2.00;99.90;;;;;;6189469;23;20027;-83
2022/11/22 00:49:32;;;;;;;22.65;17.02;;;2.00;99.90;;;;;;6216947;23;20015;-83
2022/11/22 00:51:57;;;;;;;15.63;11.52;;;2.00;99.90;;;;;;6216480;23;20325;-83
2022/11/22 00:54:23;;;;;;;15.77;6.85;;;2.00;99.90;;;;;;6216758;23;20021;-83
2022/11/22 00:56:48;;;;;;;14.85;7.68;;;2.00;99.90;;;;;;6216321;23;20320;-83
2022/11/22 00:59:14;;;;;;;27.85;23.42;;;2.00;99.90;;;;;;6216673;23;20021;-82
2022/11/22 01:01:40;;;;;;;19.23;15.32;;;2.00;99.90;;;;;;6216556;23;20444;-83
2022/11/22 01:04:06;;;;;;;14.82;12.05;;;2.20;99.90;;;;;;6216496;23;20399;-84
2022/11/22 01:06:31;;;;;;;21.60;16.60;;;2.00;99.90;;;;;;6216719;23;20024;-83
2022/11/22 01:08:57;;;;;;;17.98;8.00;;;2.00;99.90;;;;;;6189847;23;20424;-83
2022/11/22 01:11:23;;;;;;;18.33;12.52;;;2.00;99.90;;;;;;6216891;23;20012;-83
2022/11/22 01:13:48;;;;;;;28.05;22.73;;;2.00;99.90;;;;;;6216697;23;20021;-82
2022/11/22 01:16:15;;;;;;;44.10;31.88;;;2.60;99.90;;;;;;6216511;23;20012;-83
2022/11/22 01:18:41;;;;;;;35.42;27.20;;;2.10;99.90;;;;;;6216245;23;20332;-83
2022/11/22 01:21:06;;;;;;;47.42;33.70;;;2.20;99.90;;;;;;6216227;23;20017;-83
2022/11/22 01:23:33;;;;;;;32.13;24.17;;;1.90;99.90;;;;;;6216143;23;20020;-83
2022/11/22 01:25:58;;;;;;;54.42;40.85;;;2.80;99.90;;;;;;6189560;23;20092;-83
2022/11/22 01:28:24;;;;;;;29.42;16.52;;;2.00;99.90;;;;;;6216477;23;20412;-83
2022/11/22 01:30:51;;;;;;;43.45;27.02;;;1.90;99.90;;;;;;6216468;23;20052;-83
2022/11/22 01:33:17;;;;;;;37.28;31.90;;;2.00;99.90;;;;;;6216200;23;20017;-83
2022/11/22 01:35:43;;;;;;;26.90;22.02;;;4.80;99.90;;;;;;6215596;23;20009;-84
2022/11/22 01:38:09;;;;;;;37.95;30.58;;;2.10;99.90;;;;;;6216308;23;20028;-83
2022/11/22 01:40:35;;;;;;;37.78;30.58;;;2.10;99.90;;;;;;6216394;23;20009;-83
2022/11/22 01:43:02;;;;;;;43.42;37.70;;;3.00;99.90;;;;;;6216576;23;20016;-83
2022/11/22 01:45:28;;;;;;;35.40;21.77;;;2.20;99.90;;;;;;6216160;23;20008;-83
2022/11/22 01:48:03;;;;;;;29.00;20.92;;;1.80;99.90;;;;;;6189366;23;20082;-84
2022/11/22 01:50:32;;;;;;;23.75;9.90;;;2.20;99.90;;;;;;6215441;23;20063;-84
2022/11/22 01:53:05;;;;;;;24.92;12.95;;;2.20;99.90;;;;;;6216385;23;20009;-83
2022/11/22 01:55:32;;;;;;;38.50;26.88;;;2.80;99.90;;;;;;6189347;23;20035;-83
2022/11/22 01:57:59;;;;;;;51.53;30.83;;;2.20;99.90;;;;;;6188936;23;20451;-84
2022/11/22 02:00:25;;;;;;;26.30;14.85;;;2.20;99.90;;;;;;6215670;23;20012;-83
2022/11/22 02:02:55;;;;;;;56.83;33.92;;;2.20;99.90;;;;;;6216168;23;20375;-83
2022/11/22 02:05:24;;;;;;;21.75;9.93;;;2.20;99.90;;;;;;6215734;23;20016;-83
2022/11/22 02:07:57;;;;;;;64.05;54.25;;;2.30;99.90;;;;;;6215995;23;20016;-84
2022/11/22 02:10:27;;;;;;;28.92;25.20;;;2.30;99.90;;;;;;6215646;23;20013;-84
2022/11/22 02:12:56;;;;;;;27.50;19.55;;;2.30;99.90;;;;;;6216002;23;20095;-83
2022/11/22 02:15:23;;;;;;;38.50;31.13;;;2.30;99.90;;;;;;6215751;23;20023;-84
2022/11/22 02:17:48;;;;;;;21.13;10.82;;;2.30;99.90;;;;;;6215735;23;20016;-84
2022/11/22 02:20:16;;;;;;;21.42;15.88;;;2.30;99.90;;;;;;6215502;23;20016;-84
2022/11/22 02:22:53;;;;;;;85.85;63.42;;;2.30;99.90;;;;;;6215645;23;20021;-84
2022/11/22 02:25:41;;;;;;;47.60;30.92;;;2.30;99.90;;;;;;6215641;23;20017;-83
2022/11/22 02:28:12;;;;;;;36.60;22.25;;;2.30;99.90;;;;;;6215926;23;20048;-84
2022/11/22 02:30:40;;;;;;;30.08;19.00;;;2.30;99.90;;;;;;6215947;23;20016;-84
2022/11/22 02:33:06;;;;;;;46.47;40.33;;;2.40;99.90;;;;;;6215293;23;20013;-85
2022/11/22 02:35:32;;;;;;;31.75;22.17;;;3.00;99.90;;;;;;6215227;23;20459;-84
2022/11/22 02:38:00;;;;;;;26.00;15.43;;;2.60;99.90;;;;;;6189292;23;20035;-83
2022/11/22 02:40:28;;;;;;;46.67;24.55;;;3.10;99.90;;;;;;6189026;23;20401;-84
2022/11/22 02:43:00;;;;;;;51.28;36.85;;;2.30;99.90;;;;;;6215479;23;20027;-83
2022/11/22 02:45:26;;;;;;;36.88;29.02;;;2.40;99.90;;;;;;6215641;23;20079;-84
2022/11/22 02:47:52;;;;;;;62.58;51.10;;;2.20;99.90;;;;;;6215597;23;20406;-84
2022/11/22 02:50:18;;;;;;;39.38;32.40;;;2.90;99.90;;;;;;6215737;23;20024;-83
2022/11/22 02:52:43;;;;;;;315.33;216.52;;;2.40;99.90;;;;;;6215216;23;20016;-83
2022/11/22 02:55:09;;;;;;;251.43;164.63;;;2.90;99.90;;;;;;6215939;23;20028;-83
2022/11/22 02:57:34;;;;;;;197.60;157.93;;;2.40;99.90;;;;;;6215319;23;20012;-84
2022/11/22 03:00:00;;;;;;;213.55;160.95;;;2.40;99.90;;;;;;6215782;23;20021;-84
2022/11/22 03:02:26;;;;;;;274.25;212.20;;;2.40;99.90;;;;;;6215287;23;20080;-84
2022/11/22 03:04:52;;;;;;;295.02;217.77;;;2.40;99.90;;;;;;6188541;23;20079;-84
2022/11/22 03:07:17;;;;;;;400.35;260.52;;;2.40;99.90;;;;;;6215678;23;20013;-84
2022/11/22 03:09:43;;;;;;;341.55;245.60;;;2.40;99.90;;;;;;6216216;23;20313;-85
2022/11/22 03:12:08;;;;;;;200.23;136.80;;;2.40;99.90;;;;;;6219147;23;20016;-83
2022/11/22 03:14:34;;;;;;;357.42;229.82;;;2.40;99.90;;;;;;6218598;23;20435;-84
2022/11/22 03:17:00;;;;;;;375.10;247.07;;;2.50;99.90;;;;;;6219182;23;20008;-84
2022/11/22 03:19:25;;;;;;;459.50;293.02;;;2.50;99.90;;;;;;6192030;23;20090;-84
2022/11/22 03:21:51;;;;;;;482.83;288.65;;;2.50;99.90;;;;;;6219327;23;20386;-84
2022/11/22 03:24:19;;;;;;;479.83;296.55;;;3.00;99.90;;;;;;6192037;23;20046;-83
2022/11/22 03:26:48;;;;;;;475.42;273.10;;;2.50;99.90;;;;;;6219090;23;20013;-83
2022/11/22 03:29:16;;;;;;;462.48;268.63;;;2.50;99.90;;;;;;6219158;23;20386;-84
2022/11/22 03:31:41;;;;;;;505.95;297.02;;;2.50;99.90;;;;;;6192113;23;20024;-85
2022/11/22 03:34:07;;;;;;;505.48;305.38;;;2.50;99.90;;;;;;6218412;23;20019;-84
2022/11/22 03:36:33;;;;;;;401.17;254.73;;;2.50;99.90;;;;;;6218596;23;20496;-83
2022/11/22 03:38:59;;;;;;;483.98;280.08;;;2.60;99.90;;;;;;6191712;23;20013;-83
2022/11/22 03:41:24;;;;;;;535.67;300.33;;;2.50;99.90;;;;;;6192053;23;20099;-84
2022/11/22 03:43:50;;;;;;;476.08;270.73;;;2.50;99.90;;;;;;6218584;23;20016;-84
2022/11/22 03:46:18;;;;;;;357.05;239.27;;;2.50;99.90;;;;;;6191933;23;20055;-84
2022/11/22 03:48:44;;;;;;;591.88;314.75;;;2.60;99.90;;;;;;6218623;23;20111;-83
2022/11/22 03:51:10;;;;;;;628.15;329.02;;;3.10;99.90;;;;;;6192128;23;20099;-84
2022/11/22 03:53:36;;;;;;;617.85;320.52;;;2.60;99.90;;;;;;6218094;23;20077;-85
2022/11/22 03:56:02;;;;;;;652.47;326.23;;;3.00;99.90;;;;;;6218364;23;20021;-83
2022/11/22 03:58:28;;;;;;;646.13;323.55;;;2.60;99.90;;;;;;6191790;23;20435;-84
2022/11/22 04:00:55;;;;;;;445.20;260.33;;;2.60;99.90;;;;;;6192241;23;20024;-83
2022/11/22 04:03:21;;;;;;;585.22;307.15;;;3.30;99.90;;;;;;6218671;23;20026;-83
2022/11/22 04:05:47;;;;;;;570.28;307.95;;;2.60;99.90;;;;;;6218376;23;20392;-83
2022/11/22 04:08:14;;;;;;;485.02;265.42;;;2.60;99.90;;;;;;6218544;23;20321;-85
2022/11/22 04:10:40;;;;;;;497.27;292.67;;;2.70;99.90;;;;;;6218505;23;20020;-83
2022/11/22 04:13:06;;;;;;;428.85;247.70;;;2.70;99.90;;;;;;6218374;23;20012;-84
2022/11/22 04:15:31;;;;;;;470.67;297.13;;;2.80;99.90;;;;;;6218701;23;20016;-84
2022/11/22 04:17:57;;;;;;;517.45;301.38;;;2.70;99.90;;;;;;6192141;23;20023;-85
2022/11/22 04:23:17;;;;;;;415.05;249.32;;;2.80;99.90;;;;;;6216606;23;20107;-87
2022/11/22 04:25:46;;;;;;;543.17;304.95;;;2.80;99.90;;;;;;6216977;23;20017;-85
2022/11/22 04:28:13;;;;;;;460.10;303.50;;;2.80;99.90;;;;;;6216821;23;20095;-83
2022/11/22 04:33:24;;;;;;;506.70;285.90;;;2.80;99.90;;;;;;6216924;23;20020;-83
2022/11/22 04:35:50;;;;;;;557.45;318.33;;;2.80;99.90;;;;;;6216335;23;20472;-84
2022/11/22 04:38:17;;;;;;;206.95;187.15;;;2.90;99.90;;;;;;6190160;23;20016;-83
2022/11/22 04:40:43;;;;;;;523.22;308.35;;;2.90;99.90;;;;;;6217002;23;20017;-83
2022/11/22 04:46:09;;;;;;;537.25;318.73;;;2.90;99.90;;;;;;6216889;23;20017;-83
2022/11/22 04:48:35;;;;;;;444.85;282.33;;;3.00;99.90;;;;;;6164821;23;20076;-86
2022/11/22 04:53:46;;;;;;;516.78;289.67;;;3.80;99.90;;;;;;6216935;23;20108;-83
2022/11/22 04:56:12;;;;;;;624.20;327.90;;;3.10;99.90;;;;;;6216698;23;20071;-84
2022/11/22 04:58:38;;;;;;;408.40;277.92;;;3.10;99.90;;;;;;6216134;23;20055;-86
2022/11/22 05:01:04;;;;;;;345.40;234.60;;;3.10;99.90;;;;;;6216682;23;20094;-83
2022/11/22 05:03:29;;;;;;;11.63;6.88;;;3.10;99.90;;;;;;6189932;23;20016;-83
2022/11/22 05:05:55;;;;;;;269.08;209.77;;;3.10;99.90;;;;;;6216670;23;20028;-86
2022/11/22 05:08:21;;;;;;;29.48;25.25;;;3.70;99.90;;;;;;6216926;23;20021;-83
2022/11/22 05:10:56;;;;;;;322.00;226.27;;;3.10;99.90;;;;;;6190111;23;20096;-83
2022/11/22 05:13:26;;;;;;;;;;;3.80;99.90;;;;;;6217008;23;20127;-84
2022/11/22 05:15:52;;;;;;;11.43;7.55;;;3.20;99.90;;;;;;6216676;23;20327;-83
2022/11/22 05:18:19;;;;;;;24.33;21.45;;;3.20;99.90;;;;;;6216432;23;20104;-85
2022/11/22 05:20:45;;;;;;;197.52;171.43;;;2.80;99.90;;;;;;6216604;23;20020;-83
2022/11/22 05:25:56;;;;;;;28.60;26.10;;;3.20;99.90;;;;;;6216303;23;20021;-84
2022/11/22 05:28:22;;;;;;;21.40;13.68;;;3.20;99.90;;;;;;6189543;23;20071;-83
2022/11/22 05:30:47;;;;;;;34.40;17.90;;;3.30;99.90;;;;;;6216013;23;20016;-85
2022/11/22 05:33:13;;;;;;;104.32;57.90;;;3.20;99.90;;;;;;6216276;23;20150;-84
2022/11/22 05:35:39;;;;;;;57.80;33.90;;;3.90;99.90;;;;;;6216054;23;20329;-83
2022/11/22 05:38:04;;;;;;;31.75;20.95;;;3.20;99.90;;;;;;6189284;23;20036;-83
2022/11/22 05:40:30;;;;;;;54.95;37.38;;;3.20;99.90;;;;;;6216389;23;20016;-83
2022/11/22 05:42:57;;;;;;;27.35;16.20;;;3.30;99.90;;;;;;6216259;23;20479;-83
2022/11/22 05:45:22;;;;;;;63.97;41.25;;;3.30;99.90;;;;;;6190040;23;20040;-84
2022/11/22 05:47:48;;;;;;;47.42;38.90;;;3.90;99.90;;;;;;6216045;23;20020;-84
2022/11/22 05:50:14;;;;;;;44.63;33.35;;;3.30;99.90;;;;;;6216511;23;20062;-83
2022/11/22 05:52:39;;;;;;;94.95;54.42;;;3.30;99.90;;;;;;6189447;23;20023;-84
2022/11/22 05:55:05;;;;;;;91.57;51.33;;;3.30;99.90;;;;;;6215995;23;20032;-85
2022/11/22 05:57:32;;;;;;;120.60;65.78;;;3.30;99.90;;;;;;6215617;23;20032;-83
2022/11/22 05:59:57;;;;;;;112.75;72.22;;;3.30;99.90;;;;;;6216193;23;20024;-84
2022/11/22 06:02:23;;;;;;;85.95;50.10;;;3.40;99.90;;;;;;6215926;23;20036;-84
2022/11/22 06:04:49;;;;;;;140.52;77.80;;;3.40;99.90;;;;;;6215406;23;20019;-85
2022/11/22 06:07:14;;;;;;;62.53;46.90;;;3.40;99.90;;;;;;6215560;23;20016;-84
2022/11/22 06:09:40;;;;;;;127.18;113.35;;;4.10;99.90;;;;;;6216231;23;20020;-83
2022/11/22 06:12:06;;;;;;;86.78;64.53;;;4.10;99.90;;;;;;6189129;23;20047;-83
2022/11/22 06:14:32;;;;;;;84.28;52.38;;;3.80;99.90;;;;;;6216030;23;20013;-84
2022/11/22 06:16:57;;;;;;;35.28;31.98;;;4.50;99.90;;;;;;6215908;23;20008;-87
2022/11/22 06:19:23;;;;;;;100.75;66.55;;;3.80;99.90;;;;;;6215835;23;20508;-83
2022/11/22 06:21:49;;;;;;;105.50;83.65;;;3.50;99.90;;;;;;6189008;23;20021;-83
2022/11/22 06:24:14;;;;;;;28.10;25.92;;;3.50;99.90;;;;;;6215980;23;20051;-84
2022/11/22 06:26:40;;;;;;;98.50;61.20;;;3.50;99.90;;;;;;6215456;23;20017;-86
2022/11/22 06:29:06;;;;;;;97.95;86.82;;;3.50;99.90;;;;;;6189145;23;20355;-83
2022/11/22 06:31:32;;;;;;;140.30;102.75;;;4.50;99.90;;;;;;6215588;23;20025;-84
2022/11/22 06:33:58;;;;;;;420.02;257.75;;;4.00;99.90;;;;;;6215640;23;20019;-85
2022/11/22 06:36:27;;;;;;;411.33;301.80;;;3.50;99.90;;;;;;6188595;23;20076;-85
2022/11/22 06:38:53;;;;;;;305.77;275.23;;;3.60;99.90;;;;;;6215736;23;20340;-85
2022/11/22 06:41:20;;;;;;;378.92;299.33;;;4.70;99.90;;;;;;6215484;23;20027;-84
2022/11/22 06:43:47;;;;;;;412.23;301.00;;;4.10;99.90;;;;;;6215745;23;20031;-85
2022/11/22 06:46:14;;;;;;;303.92;217.93;;;4.30;99.90;;;;;;6214975;23;20052;-85
2022/11/22 06:48:41;;;;;;;254.00;237.80;;;3.60;99.90;;;;;;6188473;23;20055;-86
2022/11/22 06:51:19;;;;;;;103.68;96.93;;;4.40;99.90;;;;;;6188892;23;20052;-84
2022/11/22 06:53:46;;;;;;;151.45;140.55;;;3.70;99.90;;;;;;6163783;23;20016;-87
2022/11/22 06:56:15;;;;;;;164.18;149.90;;;3.60;99.90;;;;;;6188884;23;20020;-86
2022/11/22 06:58:41;;;;;;;84.35;79.18;;;3.60;99.90;;;;;;6183523;23;20024;-85
2022/11/22 07:01:16;;;;;;;128.05;119.18;;;4.50;99.90;;;;;;6185801;23;20044;-86
2022/11/22 07:03:42;;;;;;;130.13;121.68;;;3.70;99.90;;;;;;6185507;23;20096;-85
2022/11/22 07:06:10;;;;;;;170.88;158.75;;;4.70;99.90;;;;;;6185645;23;20157;-85
2022/11/22 07:08:36;;;;;;;407.80;307.10;;;3.60;99.90;;;;;;6185407;23;20013;-85
2022/11/22 07:11:09;;;;;;;367.48;240.95;;;4.30;99.90;;;;;;6185422;23;20017;-85
2022/11/22 07:13:35;;;;;;;324.75;288.25;;;3.70;99.90;;;;;;6185676;23;20021;-85
2022/11/22 07:16:03;;;;;;;144.00;101.68;;;2.80;99.90;;;;;;6185415;23;20028;-85
2022/11/22 07:18:30;;;;;;;57.38;52.22;;;3.70;99.90;;;;;;6185131;23;20081;-85
2022/11/22 07:21:03;;;;;;;61.03;55.20;;;3.70;99.90;;;;;;6183781;23;20028;-86
2022/11/22 07:23:29;;;;;;;267.63;245.88;;;3.10;99.90;;;;;;6185494;23;20337;-87
2022/11/22 07:25:55;;;;;;;446.45;320.70;;;4.20;99.90;;;;;;6183191;23;20017;-87
2022/11/22 07:28:21;;;;;;;102.63;86.32;;;4.20;99.90;;;;;;6186141;23;20436;-86
2022/11/22 07:30:46;;;;;;;238.38;194.15;;;4.60;99.90;;;;;;6185016;23;20021;-84
2022/11/22 07:33:12;;;;;;;202.25;190.65;;;5.10;99.90;;;;;;6185204;23;20112;-86
2022/11/22 07:35:38;;;;;;;540.42;321.70;;;3.80;99.90;;;;;;6184711;23;20021;-89
2022/11/22 07:38:04;;;;;;;314.60;189.52;;;3.90;99.90;;;;;;6185736;23;20013;-87
2022/11/22 07:40:29;;;;;;;283.00;210.27;;;4.80;99.90;;;;;;6183479;23;20017;-87
2022/11/22 07:42:55;;;;;;;318.20;232.55;;;4.30;99.90;;;;;;6158783;23;20024;-83
2022/11/22 07:45:21;;;;;;;306.65;181.75;;;4.60;99.90;;;;;;6185799;23;20017;-87
2022/11/22 07:47:47;;;;;;;478.42;281.25;;;3.90;99.90;;;;;;6183821;23;20021;-85
2022/11/22 07:50:12;;;;;;;550.88;317.90;;;4.00;99.90;;;;;;6184963;23;20065;-90
2022/11/22 07:52:38;;;;;;;359.20;242.00;;;4.00;99.90;;;;;;6185056;23;20021;-88
2022/11/22 07:55:05;;;;;;;500.85;290.85;;;4.90;99.90;;;;;;6185419;23;20009;-88
2022/11/22 07:57:31;;;;;;;528.42;293.17;;;4.00;99.90;;;;;;6184317;23;20091;-87
2022/11/22 07:59:57;;;;;;;606.13;332.02;;;5.00;99.90;;;;;;6185265;23;20376;-84
2022/11/22 08:02:23;;;;;;;578.58;335.33;;;3.10;99.90;;;;;;6187085;23;20076;-84
2022/11/22 08:04:49;;;;;;;544.17;325.58;;;3.90;99.90;;;;;;6186920;23;20021;-83
2022/11/22 08:07:14;;;;;;;206.35;165.80;;;4.70;99.90;;;;;;6187123;23;20017;-85
2022/11/22 08:09:40;;;;;;;196.55;152.23;;;4.30;99.90;;;;;;6187068;23;20013;-85
2022/11/22 08:12:06;;;;;;;585.53;317.15;;;5.20;99.90;;;;;;6185285;23;20021;-84
2022/11/22 08:14:31;;;;;;;37.50;30.13;;;4.30;99.90;;;;;;6187321;23;20017;-84
2022/11/22 08:16:57;;;;;;;9.50;6.90;;;4.80;99.90;;;;;;6187170;23;20141;-85
2022/11/22 08:19:23;;;;;;;44.63;25.30;;;5.40;99.90;;;;;;6160610;23;20351;-86
2022/11/22 08:21:48;;;;;;;15.55;9.25;;;4.50;99.90;;;;;;6186418;23;20017;-85
2022/11/22 08:24:14;;;;;;;456.73;305.83;;;5.20;99.90;;;;;;6186798;23;20020;-84
2022/11/22 08:26:41;;;;;;;12.85;11.73;;;5.50;99.90;;;;;;6185240;23;20401;-85
2022/11/22 08:29:10;;;;;;;10.93;3.97;;;5.50;99.90;;;;;;6186968;23;20056;-85
2022/11/22 08:31:36;;;;;;;5.88;2.90;;;5.30;99.90;;;;;;6184860;23;20021;-83
2022/11/22 08:34:02;;;;;;;5.20;3.92;;;5.90;99.90;;;;;;6186645;23;20377;-83
2022/11/22 08:36:28;;;;;;;9.45;4.25;;;4.80;99.90;;;;;;6186656;23;20013;-84
2022/11/22 08:38:54;;;;;;;7.78;3.50;;;4.80;99.90;;;;;;6186582;23;20047;-85
2022/11/22 08:41:20;;;;;;;6.30;2.63;;;5.60;99.90;;;;;;6185048;23;20021;-85
2022/11/22 08:43:49;;;;;;;6.80;3.47;;;4.80;99.90;;;;;;6186497;23;20047;-84
2022/11/22 08:46:14;;;;;;;6.25;3.60;;;5.50;99.90;;;;;;6186894;23;20013;-84
2022/11/22 08:48:40;;;;;;;6.95;3.30;;;5.20;99.90;;;;;;6186786;23;20020;-83
2022/11/22 08:51:08;;;;;;;5.95;2.70;;;5.10;99.90;;;;;;6186687;23;20440;-84
2022/11/22 08:53:36;;;;;;;7.43;3.28;;;5.10;99.90;;;;;;6186629;23;20440;-85
2022/11/22 08:56:04;;;;;;;7.40;2.53;;;5.10;99.90;;;;;;6186600;23;20095;-85
2022/11/22 08:58:31;;;;;;;4.75;2.30;;;5.20;99.90;;;;;;6211205;23;20016;-85
2022/11/22 09:01:02;;;;;;;7.30;2.67;;;5.50;99.90;;;;;;6215558;23;20016;-82
2022/11/22 09:03:28;;;;;;;5.40;2.65;;;6.60;99.90;;;;;;6216719;23;20013;-83
2022/11/22 09:06:00;;;;;;;7.88;2.75;;;5.10;99.90;;;;;;6215980;23;20052;-82
2022/11/22 09:08:26;;;;;;;4.85;1.90;;;6.20;99.90;;;;;;6216105;23;20098;-84
2022/11/22 09:10:51;;;;;;;3.55;1.65;;;5.40;99.90;;;;;;6189632;23;20012;-83
2022/11/22 09:13:17;;;;;;;4.90;1.90;;;5.20;99.90;;;;;;6216303;23;20062;-83
2022/11/22 09:15:42;;;;;;;4.35;1.70;;;5.60;99.90;;;;;;6216537;23;20486;-83
2022/11/22 09:18:08;;;;;;;5.90;1.80;;;6.60;99.90;;;;;;6189692;23;20016;-85
2022/11/22 09:20:34;;;;;;;5.20;1.55;;;6.30;99.90;;;;;;6216329;23;20084;-87
2022/11/22 09:23:00;;;;;;;5.68;1.67;;;5.60;99.90;;;;;;6216508;23;20523;-87
2022/11/22 09:25:26;;;;;;;6.97;1.77;;;5.60;99.90;;;;;;6216472;23;20028;-84
2022/11/22 09:27:51;;;;;;;5.40;1.90;;;7.00;99.90;;;;;;6216140;23;20024;-85
2022/11/22 09:30:17;;;;;;;6.00;1.77;;;4.70;99.90;;;;;;6216514;23;20021;-85
2022/11/22 09:32:43;;;;;;;4.60;2.08;;;6.70;99.90;;;;;;6216506;23;20024;-85
2022/11/22 09:35:09;;;;;;;3.35;1.60;;;5.70;99.90;;;;;;6215935;23;20012;-87
2022/11/22 09:37:34;;;;;;;6.35;1.27;;;5.80;99.90;;;;;;6215582;23;20098;-85
2022/11/22 09:40:00;;;;;;;8.45;1.90;;;6.50;99.90;;;;;;6216218;23;20017;-86
2022/11/22 09:42:46;;;;;;;6.75;1.98;;;6.30;99.90;;;;;;6216491;23;20036;-84
2022/11/22 09:45:14;;;;;;;7.30;2.15;;;5.80;99.90;;;;;;6189831;23;20027;-84
2022/11/22 09:48:01;;;;;;;10.82;2.05;;;5.80;99.90;;;;;;6216315;23;20379;-84
2022/11/22 09:50:44;;;;;;;3.30;1.80;;;6.60;99.90;;;;;;6189251;23;20325;-83
2022/11/22 09:53:19;;;;;;;7.13;1.80;;;5.80;99.90;;;;;;6189143;23;20067;-84
2022/11/22 09:55:48;;;;;;;4.78;1.55;;;5.60;99.90;;;;;;6215861;23;20014;-85
2022/11/22 09:58:29;;;;;;;8.20;2.03;;;5.80;99.90;;;;;;6215767;23;20025;-85
2022/11/22 10:01:10;;;;;;;6.72;1.83;;;5.70;99.90;;;;;;6216041;23;20023;-85
2022/11/22 10:03:45;;;;;;;6.35;1.52;;;5.70;99.90;;;;;;6215964;23;20020;-86
2022/11/22 10:06:36;;;;;;;8.90;2.40;;;6.80;99.90;;;;;;6215680;23;20344;-86
2022/11/22 10:09:26;;;;;;;9.30;1.67;;;5.70;99.90;;;;;;6215677;23;20459;-84
2022/11/22 10:12:04;;;;;;;4.03;1.40;;;5.70;99.90;;;;;;6215850;23;20012;-86
2022/11/22 10:14:44;;;;;;;7.25;1.60;;;5.70;99.90;;;;;;6216110;23;20017;-86
2022/11/22 10:17:47;;;;;;;3.95;1.45;;;5.80;99.90;;;;;;6215781;23;20464;-87
2022/11/22 10:20:18;;;;;;;7.15;1.50;;;5.80;99.90;;;;;;6215105;23;20024;-88
2022/11/22 10:22:45;;;;;;;3.75;1.20;;;5.80;99.90;;;;;;6215536;23;20474;-86
2022/11/22 10:25:44;;;;;;;6.07;1.33;;;7.30;99.90;;;;;;6217377;23;20511;-89
2022/11/22 10:28:29;;;;;;;5.85;1.17;;;5.90;99.90;;;;;;6066151;23;20192;-88
2022/11/22 10:31:05;;;;;;;2.20;1.00;;;5.90;99.90;;;;;;6065861;23;20026;-84
2022/11/22 10:33:52;;;;;;;5.90;1.13;;;5.90;99.90;;;;;;6041580;23;20035;-87
2022/11/22 10:36:26;;;;;;;6.72;1.10;;;7.10;99.90;;;;;;6065808;23;20362;-86
2022/11/22 10:39:14;;;;;;;8.45;1.33;;;6.00;99.90;;;;;;6065819;23;20106;-87
2022/11/22 10:42:03;;;;;;;6.28;1.02;;;6.10;99.90;;;;;;6065854;23;20110;-85
2022/11/22 10:44:48;;;;;;;5.13;1.05;;;6.10;99.90;;;;;;6065795;23;20477;-86
2022/11/22 10:47:26;;;;;;;1.70;1.02;;;6.10;99.90;;;;;;6065800;23;20031;-88
2022/11/22 10:50:04;;;;;;;90.85;86.03;;;6.10;99.90;;;;;;6065730;23;20023;-84
2022/11/22 10:52:44;;;;;;;8.80;0.75;;;6.20;99.90;;;;;;6065936;23;20152;-84
2022/11/22 10:55:23;;;;;;;21.92;19.88;;;6.20;99.90;;;;;;6041964;23;20023;-84
2022/11/22 10:57:57;;;;;;;5.63;0.93;;;6.20;99.90;;;;;;6065635;23;20456;-86
2022/11/22 11:00:25;;;;;;;3.22;0.90;;;6.30;99.90;;;;;;6065884;23;20019;-88
2022/11/22 11:03:07;;;;;;;128.18;119.00;;;6.30;99.90;;;;;;6065874;23;20023;-86
2022/11/22 11:05:49;;;;;;;78.82;70.43;;;6.40;99.90;;;;;;6206674;23;20317;-84
2022/11/22 11:08:26;;;;;;;45.97;42.65;;;7.30;99.90;;;;;;6188447;23;20016;-85
2022/11/22 11:10:52;;;;;;;36.08;31.27;;;6.60;99.90;;;;;;6215514;23;20078;-84
2022/11/22 11:13:28;;;;;;;45.03;41.47;;;7.10;99.90;;;;;;6189081;23;20088;-85
2022/11/22 11:15:59;;;;;;;4.78;0.68;;;7.30;99.90;;;;;;6188829;23;20016;-86
2022/11/22 11:18:31;;;;;;;4.03;0.52;;;7.60;99.90;;;;;;6215846;23;20041;-84
2022/11/22 11:20:57;;;;;;;3.47;1.08;;;6.70;99.90;;;;;;6188773;23;20016;-84
2022/11/22 11:23:23;;;;;;;4.68;0.85;;;6.70;99.90;;;;;;6215381;23;20088;-85
2022/11/22 11:25:51;;;;;;;2.83;0.88;;;8.10;99.90;;;;;;6215938;23;20044;-86
2022/11/22 11:28:35;;;;;;;2.83;0.88;;;7.30;99.90;;;;;;6188137;23;20078;-86
2022/11/22 11:31:07;;;;;;;3.83;0.70;;;7.60;99.90;;;;;;6216254;23;20021;-85
2022/11/22 11:33:37;;;;;;;1.42;0.50;;;6.80;99.90;;;;;;6217525;23;20383;-86
2022/11/22 11:36:10;;;;;;;2.65;0.52;;;6.80;99.90;;;;;;6190236;23;20024;-87
2022/11/22 11:38:47;;;;;;;5.70;1.30;;;6.90;99.90;;;;;;6217467;23;20013;-81
2022/11/22 11:41:33;;;;;;;2.50;0.50;;;7.20;99.90;;;;;;6217168;23;20439;-84
2022/11/22 11:44:00;;;;;;;1.98;0.65;;;6.90;99.90;;;;;;6190817;23;20024;-85
2022/11/22 11:46:28;;;;;;;4.55;1.40;;;6.90;99.90;;;;;;6217728;23;20364;-83
2022/11/22 11:49:15;;;;;;;1.30;0.47;;;7.40;99.90;;;;;;6217439;23;20379;-85
2022/11/22 11:51:43;;;;;;;5.53;0.98;;;6.90;99.90;;;;;;6216583;23;20126;-83
2022/11/22 11:54:18;;;;;;;3.33;0.60;;;7.70;99.90;;;;;;6217636;23;20062;-83
2022/11/22 11:56:55;;;;;;;1.95;0.57;;;6.90;99.90;;;;;;6216823;23;20017;-85
2022/11/22 11:59:30;;;;;;;4.03;0.50;;;7.00;99.90;;;;;;6217358;23;20024;-84
2022/11/22 12:02:02;;;;;;;1.67;0.50;;;7.00;99.90;;;;;;6190385;23;20060;-86
2022/11/22 12:04:44;;;;;;;3.03;0.50;;;7.30;99.90;;;;;;6216723;23;20474;-85
2022/11/22 12:07:21;;;;;;;4.47;0.60;;;7.00;99.90;;;;;;6216814;23;20062;-85
2022/11/22 12:09:49;;;;;;;1.95;0.40;;;7.10;99.90;;;;;;6217257;23;20062;-85
2022/11/22 12:12:14;;;;;;;2.95;0.70;;;7.10;99.90;;;;;;6217025;23;20066;-85
2022/11/22 12:14:46;;;;;;;4.30;0.70;;;7.20;99.90;;;;;;6216937;23;20020;-86
2022/11/22 12:17:23;;;;;;;4.25;0.50;;;7.60;99.90;;;;;;6190546;23;20017;-86
2022/11/22 12:19:56;;;;;;;3.55;0.70;;;7.90;99.90;;;;;;6216641;23;20023;-84
2022/11/22 12:22:59;;;;;;;1.88;0.60;;;8.20;99.90;;;;;;6190143;23;20459;-85
2022/11/22 12:25:32;;;;;;;2.97;0.52;;;7.50;99.90;;;;;;6066673;23;20059;-86
2022/11/22 12:28:02;;;;;;;0.50;0.40;;;8.20;99.90;;;;;;6066437;23;20098;-86
2022/11/22 12:30:28;;;;;;;1.67;0.52;;;8.20;99.90;;;;;;6066823;23;20094;-85
2022/11/22 12:33:05;;;;;;;4.07;0.50;;;8.70;99.90;;;;;;6042959;23;20117;-84
2022/11/22 12:35:43;;;;;;;2.60;0.40;;;7.60;99.90;;;;;;6066469;23;20026;-84
2022/11/22 12:38:24;;;;;;;4.00;0.70;;;7.50;99.90;;;;;;6067054;23;20068;-84
2022/11/22 12:40:56;;;;;;;1.05;0.50;;;7.70;99.90;;;;;;6067050;23;20019;-85
2022/11/22 12:43:27;;;;;;;2.20;0.90;;;8.00;99.90;;;;;;6066335;23;20415;-85
2022/11/22 12:46:08;;;;;;;5.78;0.60;;;8.10;99.90;;;;;;6067021;23;20026;-84
2022/11/22 12:48:44;;;;;;;4.95;0.93;;;7.60;99.90;;;;;;6066599;23;20053;-84
2022/11/22 12:51:18;;;;;;;1.75;0.40;;;7.50;99.90;;;;;;6042612;23;20489;-84
2022/11/22 12:53:46;;;;;;;5.05;0.50;;;7.50;99.90;;;;;;6066727;23;20057;-85
2022/11/22 12:56:22;;;;;;;2.10;0.57;;;7.50;99.90;;;;;;6066608;23;20346;-84
2022/11/22 12:58:51;;;;;;;;;;;7.50;99.90;;;;;;6066954;23;20023;-85
2022/11/22 13:01:50;;;;;;;1.75;0.60;;;7.50;99.90;;;;;;6085990;23;19923;-85